createdAt,value
2022-08-29T00:00:28.263Z,21.78
2022-08-29T00:02:59.937Z,21.74
2022-08-29T00:05:32.802Z,21.86
2022-08-29T00:08:00.833Z,21.69
2022-08-29T00:10:28.921Z,21.81
2022-08-29T00:12:57.757Z,21.09
2022-08-29T00:15:25.016Z,21.65
2022-08-29T00:17:51.500Z,21.44
2022-08-29T00:20:22.906Z,21.65
2022-08-29T00:22:58.541Z,21.33
2022-08-29T00:25:26.064Z,21.56
2022-08-29T00:27:52.875Z,21.52
2022-08-29T00:30:21.068Z,21.25
2022-08-29T00:32:48.140Z,21.25
2022-08-29T00:35:17.838Z,21.25
2022-08-29T00:37:44.772Z,20.69
2022-08-29T00:40:15.196Z,21.34
2022-08-29T00:42:42.055Z,21.14
2022-08-29T00:45:11.352Z,21.28
2022-08-29T00:47:47.177Z,20.69
2022-08-29T00:50:22.656Z,21.24
2022-08-29T00:52:49.335Z,21.09
2022-08-29T00:55:22.426Z,21.17
2022-08-29T00:57:56.218Z,20.95
2022-08-29T01:00:23.371Z,20.89
2022-08-29T01:02:51.344Z,20.24
2022-08-29T01:05:19.725Z,20.93
2022-08-29T01:07:47.710Z,20.73
2022-08-29T01:10:35.569Z,20.72
2022-08-29T01:13:04.472Z,20.86
2022-08-29T01:15:33.649Z,20.73
2022-08-29T01:18:15.905Z,20.38
2022-08-29T01:21:01.841Z,20.80
2022-08-29T01:24:09.901Z,20.63
2022-08-29T01:26:37.084Z,19.85
2022-08-29T01:29:04.182Z,20.51
2022-08-29T01:31:56.875Z,20.48
2022-08-29T01:34:26.926Z,20.47
2022-08-29T01:36:57.557Z,20.19
2022-08-29T01:39:27.732Z,20.37
2022-08-29T01:41:54.862Z,20.33
2022-08-29T01:44:25.423Z,20.04
2022-08-29T01:47:00.258Z,19.74
2022-08-29T01:49:29.701Z,20.23
2022-08-29T01:51:56.135Z,20.06
2022-08-29T01:54:22.673Z,19.72
2022-08-29T01:56:54.970Z,20.17
2022-08-29T01:59:26.181Z,19.06
2022-08-29T02:02:08.098Z,19.85
2022-08-29T02:04:35.326Z,19.75
2022-08-29T02:07:01.964Z,19.70
2022-08-29T02:09:29.427Z,20.00
2022-08-29T02:11:58.050Z,19.96
2022-08-29T02:14:25.178Z,19.45
2022-08-29T02:16:51.848Z,19.70
2022-08-29T02:19:18.600Z,19.75
2022-08-29T02:21:45.265Z,19.74
2022-08-29T02:24:25.005Z,19.42
2022-08-29T02:26:53.247Z,19.62
2022-08-29T02:29:19.734Z,19.52
2022-08-29T02:31:46.279Z,19.22
2022-08-29T02:34:13.004Z,19.35
2022-08-29T02:36:41.410Z,19.00
2022-08-29T02:39:09.744Z,19.52
2022-08-29T02:41:37.408Z,19.30
2022-08-29T02:44:05.000Z,19.52
2022-08-29T02:46:31.710Z,19.58
2022-08-29T02:49:01.252Z,19.44
2022-08-29T02:51:31.197Z,19.46
2022-08-29T02:53:58.453Z,19.40
2022-08-29T02:56:25.235Z,19.46
2022-08-29T02:58:51.873Z,18.88
2022-08-29T03:01:20.544Z,18.87
2022-08-29T03:03:47.239Z,19.03
2022-08-29T03:06:13.709Z,19.31
2022-08-29T03:08:40.796Z,19.24
2022-08-29T03:11:07.705Z,18.72
2022-08-29T03:13:34.390Z,19.06
2022-08-29T03:16:02.325Z,18.14
2022-08-29T03:18:29.723Z,19.06
2022-08-29T03:20:57.384Z,18.50
2022-08-29T03:23:23.851Z,18.58
2022-08-29T03:25:50.349Z,18.96
2022-08-29T03:28:17.276Z,18.93
2022-08-29T03:30:43.776Z,18.93
2022-08-29T03:33:12.007Z,18.23
2022-08-29T03:35:39.248Z,18.65
2022-08-29T03:38:05.837Z,18.35
2022-08-29T03:40:32.742Z,18.25
2022-08-29T03:43:00.457Z,18.52
2022-08-29T03:45:26.913Z,18.64
2022-08-29T03:47:53.475Z,18.66
2022-08-29T03:50:20.887Z,18.66
2022-08-29T03:52:48.462Z,18.64
2022-08-29T03:55:15.992Z,18.16
2022-08-29T03:57:43.231Z,18.19
2022-08-29T04:00:13.963Z,18.75
2022-08-29T04:02:40.797Z,18.54
2022-08-29T04:05:11.128Z,18.72
2022-08-29T04:07:40.886Z,18.25
2022-08-29T04:10:09.120Z,17.76
2022-08-29T04:12:35.911Z,18.59
2022-08-29T04:18:13.011Z,18.31
2022-08-29T04:20:44.980Z,17.97
2022-08-29T04:23:13.397Z,18.08
2022-08-29T04:25:42.324Z,18.21
2022-08-29T04:28:17.797Z,18.19
2022-08-29T04:30:51.435Z,18.56
2022-08-29T04:33:22.474Z,18.44
2022-08-29T04:35:50.105Z,18.01
2022-08-29T04:38:16.611Z,17.84
2022-08-29T04:40:51.998Z,18.49
2022-08-29T04:43:18.532Z,18.23
2022-08-29T04:45:45.013Z,18.52
2022-08-29T04:48:11.500Z,18.35
2022-08-29T04:50:41.003Z,17.92
2022-08-29T04:53:07.460Z,18.25
2022-08-29T04:55:36.470Z,18.16
2022-08-29T04:58:04.297Z,17.83
2022-08-29T05:00:30.778Z,17.50
2022-08-29T05:02:57.824Z,18.21
2022-08-29T05:05:25.140Z,18.16
2022-08-29T05:07:55.089Z,18.20
2022-08-29T05:10:22.590Z,17.28
2022-08-29T05:12:49.306Z,18.40
2022-08-29T05:15:16.435Z,18.45
2022-08-29T05:17:43.619Z,18.47
2022-08-29T05:20:11.347Z,18.56
2022-08-29T05:22:39.149Z,18.62
2022-08-29T05:25:06.198Z,18.18
2022-08-29T05:27:32.723Z,18.30
2022-08-29T05:29:59.845Z,18.49
2022-08-29T05:32:26.484Z,17.84
2022-08-29T05:34:53.032Z,18.28
2022-08-29T05:37:20.940Z,18.04
2022-08-29T05:39:48.958Z,18.70
2022-08-29T05:42:17.680Z,18.40
2022-08-29T05:44:44.730Z,18.02
2022-08-29T05:47:13.516Z,18.72
2022-08-29T05:49:42.417Z,18.55
2022-08-29T05:52:10.339Z,18.53
2022-08-29T05:54:42.602Z,18.73
2022-08-29T05:57:15.395Z,18.59
2022-08-29T05:59:44.788Z,18.58
2022-08-29T06:02:12.129Z,18.52
2022-08-29T06:04:40.806Z,18.46
2022-08-29T06:07:08.307Z,18.65
2022-08-29T06:09:36.321Z,18.48
2022-08-29T06:12:06.587Z,18.21
2022-08-29T06:14:33.184Z,18.80
2022-08-29T06:16:59.638Z,18.04
2022-08-29T06:19:26.138Z,18.51
2022-08-29T06:21:56.053Z,18.52
2022-08-29T06:24:22.501Z,18.17
2022-08-29T06:26:48.895Z,18.69
2022-08-29T06:29:16.507Z,18.87
2022-08-29T06:31:42.978Z,18.97
2022-08-29T06:34:09.806Z,19.17
2022-08-29T06:36:37.305Z,18.93
2022-08-29T06:39:07.194Z,19.04
2022-08-29T06:41:34.723Z,18.97
2022-08-29T06:44:01.537Z,18.42
2022-08-29T06:46:37.462Z,19.12
2022-08-29T06:49:06.962Z,18.98
2022-08-29T06:51:37.453Z,19.11
2022-08-29T06:54:07.179Z,18.89
2022-08-29T06:56:37.109Z,19.06
2022-08-29T06:59:04.777Z,19.48
2022-08-29T07:01:31.365Z,19.56
2022-08-29T07:04:00.411Z,19.71
2022-08-29T07:06:27.622Z,19.77
2022-08-29T07:08:55.610Z,19.91
2022-08-29T07:11:26.894Z,19.88
2022-08-29T07:13:58.898Z,20.02
2022-08-29T07:16:26.418Z,19.53
2022-08-29T07:18:52.929Z,19.61
2022-08-29T07:21:21.756Z,20.45
2022-08-29T07:23:49.878Z,20.15
2022-08-29T07:26:18.156Z,20.60
2022-08-29T07:28:47.442Z,20.66
2022-08-29T07:31:14.226Z,20.77
2022-08-29T07:33:41.702Z,20.97
2022-08-29T07:36:08.777Z,20.68
2022-08-29T07:38:36.318Z,21.13
2022-08-29T07:41:16.334Z,21.15
2022-08-29T07:43:43.669Z,21.12
2022-08-29T07:46:17.169Z,21.25
2022-08-29T07:48:44.485Z,21.14
2022-08-29T07:51:15.608Z,21.27
2022-08-29T07:53:42.408Z,21.04
2022-08-29T07:56:24.766Z,21.09
2022-08-29T07:58:51.729Z,21.33
2022-08-29T08:01:21.180Z,21.39
2022-08-29T08:03:50.758Z,21.40
2022-08-29T08:06:22.624Z,20.83
2022-08-29T08:08:49.958Z,21.46
2022-08-29T08:11:17.691Z,21.08
2022-08-29T08:13:44.543Z,21.50
2022-08-29T08:16:15.326Z,21.42
2022-08-29T08:18:43.662Z,21.38
2022-08-29T08:21:11.403Z,21.73
2022-08-29T08:23:38.667Z,21.24
2022-08-29T08:26:05.827Z,21.59
2022-08-29T08:28:32.524Z,22.10
2022-08-29T08:31:05.980Z,22.20
2022-08-29T08:33:35.279Z,21.78
2022-08-29T08:36:12.712Z,21.92
2022-08-29T08:38:39.462Z,21.29
2022-08-29T08:41:18.118Z,21.91
2022-08-29T08:43:54.997Z,21.71
2022-08-29T08:46:43.606Z,21.69
2022-08-29T08:49:33.777Z,21.98
2022-08-29T08:52:20.628Z,21.96
2022-08-29T08:54:55.217Z,22.21
2022-08-29T08:57:22.339Z,22.37
2022-08-29T08:59:58.959Z,22.53
2022-08-29T09:02:50.157Z,22.80
2022-08-29T09:05:39.746Z,22.89
2022-08-29T09:08:21.895Z,23.05
2022-08-29T09:11:01.189Z,23.12
2022-08-29T09:13:37.179Z,23.19
2022-08-29T09:16:09.632Z,23.30
2022-08-29T09:18:40.680Z,23.38
2022-08-29T09:21:36.975Z,23.34
2022-08-29T09:23:59.825Z,23.68
2022-08-29T09:26:29.708Z,23.67
2022-08-29T09:28:57.230Z,23.43
2022-08-29T09:31:34.299Z,24.01
2022-08-29T09:34:07.589Z,24.11
2022-08-29T09:36:47.985Z,24.13
2022-08-29T09:39:34.274Z,24.13
2022-08-29T09:42:13.490Z,24.23
2022-08-29T09:44:41.666Z,24.02
2022-08-29T09:47:11.175Z,24.52
2022-08-29T09:49:40.145Z,24.31
2022-08-29T09:52:17.016Z,23.94
2022-08-29T09:54:44.309Z,24.02
2022-08-29T09:57:14.468Z,24.60
2022-08-29T09:59:45.189Z,24.62
2022-08-29T10:02:27.768Z,24.63
2022-08-29T10:05:00.000Z,24.72
2022-08-29T10:07:37.455Z,24.65
2022-08-29T10:10:16.116Z,24.88
2022-08-29T10:13:05.894Z,25.07
2022-08-29T10:15:51.433Z,24.87
2022-08-29T10:18:49.648Z,24.98
2022-08-29T10:21:34.931Z,25.33
2022-08-29T10:24:15.895Z,25.43
2022-08-29T10:27:04.971Z,25.33
2022-08-29T10:30:19.422Z,25.42
2022-08-29T10:32:48.760Z,25.42
2022-08-29T10:35:43.937Z,25.27
2022-08-29T10:38:16.324Z,25.59
2022-08-29T10:40:48.587Z,25.64
2022-08-29T10:43:21.401Z,25.91
2022-08-29T10:46:32.877Z,25.78
2022-08-29T10:49:18.211Z,25.96
2022-08-29T10:52:10.717Z,25.83
2022-08-29T10:54:52.013Z,25.45
2022-08-29T10:57:47.303Z,25.70
2022-08-29T11:00:19.874Z,26.03
2022-08-29T11:03:07.176Z,26.02
2022-08-29T11:05:41.866Z,26.00
2022-08-29T11:08:15.434Z,26.03
2022-08-29T11:10:44.813Z,26.17
2022-08-29T11:13:15.017Z,26.08
2022-08-29T11:15:43.991Z,26.36
2022-08-29T11:18:28.929Z,26.47
2022-08-29T11:21:01.152Z,26.93
2022-08-29T11:23:39.546Z,26.98
2022-08-29T11:26:18.841Z,26.79
2022-08-29T11:29:07.035Z,26.83
2022-08-29T11:32:01.471Z,26.72
2022-08-29T11:34:48.634Z,26.48
2022-08-29T11:37:33.336Z,26.65
2022-08-29T11:40:47.212Z,27.05
2022-08-29T11:43:19.318Z,26.81
2022-08-29T11:45:57.007Z,27.48
2022-08-29T11:48:39.623Z,27.63
2022-08-29T11:51:36.191Z,27.63
2022-08-29T11:54:25.180Z,27.85
2022-08-29T11:57:00.830Z,27.97
2022-08-29T11:59:49.016Z,28.09
2022-08-29T12:02:27.606Z,28.21
2022-08-29T12:04:56.568Z,28.31
2022-08-29T12:08:19.954Z,28.01
2022-08-29T16:50:47.870Z,28.75
2022-08-29T16:53:14.273Z,29.06
2022-08-29T16:55:40.685Z,29.31
2022-08-29T16:58:25.903Z,29.04
2022-08-29T17:00:53.362Z,28.71
2022-08-29T17:03:20.405Z,28.77
2022-08-29T17:05:46.966Z,28.65
2022-08-29T17:08:13.378Z,28.78
2022-08-29T17:10:39.805Z,28.70
2022-08-29T17:13:06.353Z,28.64
2022-08-29T17:15:32.858Z,28.48
2022-08-29T17:17:59.969Z,28.70
2022-08-29T17:20:26.759Z,28.65
2022-08-29T17:22:53.568Z,28.79
2022-08-29T17:25:22.455Z,28.69
2022-08-29T17:28:14.215Z,28.93
2022-08-29T17:30:37.334Z,28.99
2022-08-29T17:33:04.115Z,28.98
2022-08-29T17:35:33.112Z,28.79
2022-08-29T17:37:59.695Z,28.47
2022-08-29T17:40:26.210Z,28.48
2022-08-29T17:42:52.999Z,28.77
2022-08-29T17:45:19.399Z,28.60
2022-08-29T17:47:46.065Z,27.61
2022-08-29T17:50:12.708Z,28.03
2022-08-29T17:52:41.767Z,28.14
2022-08-29T17:55:08.650Z,28.08
2022-08-29T17:57:35.806Z,28.04
2022-08-29T18:00:03.856Z,27.94
2022-08-29T18:02:31.967Z,27.86
2022-08-29T18:04:58.555Z,27.85
2022-08-29T18:07:24.998Z,27.88
2022-08-29T18:09:55.707Z,27.95
2022-08-29T18:12:23.577Z,27.44
2022-08-29T18:14:50.098Z,27.93
2022-08-29T18:17:16.558Z,27.98
2022-08-29T18:19:43.058Z,27.84
2022-08-29T18:22:16.398Z,27.82
2022-08-29T18:24:42.893Z,27.70
2022-08-29T18:27:11.092Z,27.79
2022-08-29T18:29:37.517Z,27.82
2022-08-29T18:32:04.035Z,27.66
2022-08-29T18:34:30.528Z,27.60
2022-08-29T18:36:57.000Z,27.61
2022-08-29T18:39:23.576Z,27.47
2022-08-29T18:41:52.099Z,27.26
2022-08-29T18:44:18.687Z,27.42
2022-08-29T18:46:48.198Z,27.23
2022-08-29T18:49:15.243Z,27.18
2022-08-29T18:51:44.074Z,27.34
2022-08-29T18:54:14.258Z,26.77
2022-08-29T18:56:44.109Z,27.33
2022-08-29T18:59:10.587Z,27.30
2022-08-29T19:01:43.270Z,26.89
2022-08-29T19:04:09.747Z,27.26
2022-08-29T19:06:36.301Z,27.22
2022-08-29T19:09:02.794Z,27.27
2022-08-29T19:11:29.391Z,27.25
2022-08-29T19:13:56.013Z,27.22
2022-08-29T19:16:23.792Z,27.09
2022-08-29T19:18:50.994Z,27.10
2022-08-29T19:21:17.428Z,26.95
2022-08-29T19:23:47.439Z,26.57
2022-08-29T19:26:28.365Z,26.54
2022-08-29T19:28:58.976Z,26.78
2022-08-29T19:31:27.596Z,26.88
2022-08-29T19:33:54.143Z,26.90
2022-08-29T19:36:21.102Z,26.42
2022-08-29T19:38:47.522Z,26.63
2022-08-29T19:41:15.396Z,26.71
2022-08-29T19:43:44.441Z,26.70
2022-08-29T19:46:17.943Z,26.71
2022-08-29T19:48:48.539Z,26.34
2022-08-29T19:51:24.491Z,26.56
2022-08-29T19:53:51.728Z,25.95
2022-08-29T19:56:18.201Z,26.45
2022-08-29T19:58:45.065Z,26.50
2022-08-29T20:01:11.830Z,25.77
2022-08-29T20:03:40.677Z,25.83
2022-08-29T20:06:07.667Z,26.36
2022-08-29T20:09:02.570Z,25.75
2022-08-29T20:11:42.878Z,26.41
2022-08-29T20:14:11.068Z,25.88
2022-08-29T20:16:41.755Z,26.23
2022-08-29T20:19:08.398Z,26.17
2022-08-29T20:21:35.057Z,26.05
2022-08-29T20:24:02.630Z,25.99
2022-08-29T20:26:33.253Z,26.00
2022-08-29T20:29:01.624Z,25.55
2022-08-29T20:31:28.682Z,25.51
2022-08-29T20:33:55.336Z,25.28
2022-08-29T20:36:42.116Z,25.63
2022-08-29T20:39:11.571Z,25.93
2022-08-29T20:41:38.293Z,25.41
2022-08-29T20:44:07.650Z,25.46
2022-08-29T20:46:40.278Z,25.83
2022-08-29T20:49:11.990Z,25.89
2022-08-29T20:51:39.856Z,25.76
2022-08-29T20:54:06.604Z,25.60
2022-08-29T20:56:33.220Z,25.56
2022-08-29T20:58:59.619Z,25.48
2022-08-29T21:01:26.091Z,24.85
2022-08-29T21:04:11.253Z,25.17
2022-08-29T21:06:37.703Z,25.35
2022-08-29T21:09:05.698Z,25.33
2022-08-29T21:11:32.199Z,25.25
2022-08-29T21:13:58.625Z,24.88
2022-08-29T21:16:25.124Z,25.22
2022-08-29T21:18:52.999Z,24.71
2022-08-29T21:21:24.012Z,25.14
2022-08-29T21:23:51.701Z,24.91
2022-08-29T21:26:18.529Z,25.04
2022-08-29T21:28:47.077Z,24.94
2022-08-29T21:31:15.413Z,24.92
2022-08-29T21:33:44.644Z,25.02
2022-08-29T21:36:20.431Z,25.00
2022-08-29T21:38:50.904Z,24.98
2022-08-29T21:41:17.368Z,24.87
2022-08-29T21:43:43.863Z,24.97
2022-08-29T21:46:17.027Z,25.08
2022-08-29T21:48:43.885Z,24.53
2022-08-29T21:51:11.534Z,24.21
2022-08-29T21:53:41.635Z,24.96
2022-08-29T21:56:08.470Z,24.99
2022-08-29T21:58:35.207Z,25.09
2022-08-29T22:01:01.681Z,24.25
2022-08-29T22:03:28.363Z,24.94
2022-08-29T22:05:54.955Z,24.93
2022-08-29T22:08:21.547Z,24.87
2022-08-29T22:10:48.227Z,24.83
2022-08-29T22:13:16.183Z,24.90
2022-08-29T22:16:01.418Z,24.76
2022-08-29T22:18:27.905Z,24.64
2022-08-29T22:20:56.919Z,24.78
2022-08-29T22:23:26.415Z,24.75
2022-08-29T22:25:53.952Z,24.19
2022-08-29T22:28:20.526Z,24.63
2022-08-29T22:30:46.944Z,24.75
2022-08-29T22:33:16.536Z,24.18
2022-08-29T22:35:43.360Z,24.47
2022-08-29T22:38:09.812Z,23.90
2022-08-29T22:40:36.472Z,24.27
2022-08-29T22:43:03.067Z,24.42
2022-08-29T22:45:29.586Z,24.32
2022-08-29T22:47:56.037Z,24.59
2022-08-29T22:50:24.658Z,24.00
2022-08-29T22:52:54.778Z,23.83
2022-08-29T22:57:47.764Z,24.27
2022-08-29T23:00:20.973Z,24.28
2022-08-29T23:02:48.195Z,24.13
2022-08-29T23:05:15.486Z,24.19
2022-08-29T23:07:42.136Z,24.17
2022-08-29T23:10:09.760Z,23.88
2022-08-29T23:12:36.469Z,24.17
2022-08-29T23:15:09.903Z,24.35
2022-08-29T23:17:36.417Z,24.07
2022-08-29T23:20:04.334Z,24.19
2022-08-29T23:22:31.396Z,24.33
2022-08-29T23:24:59.089Z,24.21
2022-08-29T23:27:28.636Z,24.62
2022-08-29T23:29:55.126Z,24.63
2022-08-29T23:32:21.634Z,23.98
2022-08-29T23:34:48.114Z,24.62
2022-08-29T23:37:14.547Z,24.61
2022-08-29T23:39:40.967Z,24.50
2022-08-29T23:42:07.784Z,24.65
2022-08-29T23:44:35.403Z,24.21
2022-08-29T23:47:01.853Z,24.67
2022-08-29T23:49:28.436Z,24.77
2022-08-29T23:51:54.882Z,24.02
2022-08-29T23:54:21.405Z,24.53
2022-08-29T23:56:48.015Z,24.57
2022-08-29T23:59:34.514Z,24.06
